sensor_id;sensor_type;location;lat;lon;timestamp;P1;durP1;ratioP1;P2;durP2;ratioP2
42690;SDS011;28306;55.744;37.578;2022-09-09T00:02:42;1.05;;;0.50;;
42690;SDS011;28306;55.744;37.578;2022-09-09T00:05:12;0.60;;;0.47;;
42690;SDS011;28306;55.744;37.578;2022-09-09T00:07:47;0.60;;;0.20;;
42690;SDS011;28306;55.744;37.578;2022-09-09T00:10:28;1.05;;;0.40;;
42690;SDS011;28306;55.744;37.578;2022-09-09T00:13:03;1.25;;;0.30;;
42690;SDS011;28306;55.744;37.578;2022-09-09T00:21:13;0.98;;;0.40;;
42690;SDS011;28306;55.744;37.578;2022-09-09T00:23:49;0.52;;;0.35;;
42690;SDS011;28306;55.744;37.578;2022-09-09T00:26:32;0.98;;;0.32;;
42690;SDS011;28306;55.744;37.578;2022-09-09T00:31:37;0.38;;;0.30;;
42690;SDS011;28306;55.744;37.578;2022-09-09T00:34:11;0.95;;;0.38;;
42690;SDS011;28306;55.744;37.578;2022-09-09T00:36:44;0.40;;;0.30;;
42690;SDS011;28306;55.744;37.578;2022-09-09T00:44:38;0.88;;;0.40;;
42690;SDS011;28306;55.744;37.578;2022-09-09T00:47:40;0.55;;;0.28;;
42690;SDS011;28306;55.744;37.578;2022-09-09T00:50:12;0.63;;;0.40;;
42690;SDS011;28306;55.744;37.578;2022-09-09T00:53:02;0.75;;;0.40;;
42690;SDS011;28306;55.744;37.578;2022-09-09T00:58:34;0.98;;;0.40;;
42690;SDS011;28306;55.744;37.578;2022-09-09T01:01:04;0.80;;;0.40;;
42690;SDS011;28306;55.744;37.578;2022-09-09T01:06:12;0.75;;;0.30;;
42690;SDS011;28306;55.744;37.578;2022-09-09T01:14:00;0.50;;;0.30;;
42690;SDS011;28306;55.744;37.578;2022-09-09T01:16:47;0.80;;;0.38;;
42690;SDS011;28306;55.744;37.578;2022-09-09T01:19:18;0.80;;;0.40;;
42690;SDS011;28306;55.744;37.578;2022-09-09T01:22:00;0.70;;;0.30;;
42690;SDS011;28306;55.744;37.578;2022-09-09T01:24:48;0.67;;;0.30;;
42690;SDS011;28306;55.744;37.578;2022-09-09T01:27:52;1.05;;;0.32;;
42690;SDS011;28306;55.744;37.578;2022-09-09T01:30:20;0.43;;;0.20;;
42690;SDS011;28306;55.744;37.578;2022-09-09T01:32:53;0.93;;;0.40;;
42690;SDS011;28306;55.744;37.578;2022-09-09T01:35:29;0.57;;;0.30;;
42690;SDS011;28306;55.744;37.578;2022-09-09T01:37:59;0.40;;;0.20;;
42690;SDS011;28306;55.744;37.578;2022-09-09T01:40:25;0.90;;;0.40;;
42690;SDS011;28306;55.744;37.578;2022-09-09T01:42:53;0.85;;;0.40;;
42690;SDS011;28306;55.744;37.578;2022-09-09T01:45:19;1.17;;;0.50;;
42690;SDS011;28306;55.744;37.578;2022-09-09T01:47:47;0.95;;;0.40;;
42690;SDS011;28306;55.744;37.578;2022-09-09T01:50:33;0.60;;;0.35;;
42690;SDS011;28306;55.744;37.578;2022-09-09T01:52:59;1.27;;;0.40;;
42690;SDS011;28306;55.744;37.578;2022-09-09T01:55:31;0.93;;;0.45;;
42690;SDS011;28306;55.744;37.578;2022-09-09T02:04:21;0.68;;;0.20;;
42690;SDS011;28306;55.744;37.578;2022-09-09T02:12:32;0.57;;;0.35;;
42690;SDS011;28306;55.744;37.578;2022-09-09T02:15:05;0.52;;;0.25;;
42690;SDS011;28306;55.744;37.578;2022-09-09T02:17:47;1.02;;;0.50;;
42690;SDS011;28306;55.744;37.578;2022-09-09T02:20:17;0.65;;;0.32;;
42690;SDS011;28306;55.744;37.578;2022-09-09T02:22:52;0.73;;;0.45;;
42690;SDS011;28306;55.744;37.578;2022-09-09T02:25:22;0.80;;;0.43;;
42690;SDS011;28306;55.744;37.578;2022-09-09T02:27:52;0.40;;;0.28;;
42690;SDS011;28306;55.744;37.578;2022-09-09T02:30:19;0.55;;;0.30;;
42690;SDS011;28306;55.744;37.578;2022-09-09T02:32:55;0.45;;;0.30;;
42690;SDS011;28306;55.744;37.578;2022-09-09T02:35:38;0.80;;;0.35;;
42690;SDS011;28306;55.744;37.578;2022-09-09T02:38:08;0.73;;;0.40;;
42690;SDS011;28306;55.744;37.578;2022-09-09T02:40:39;0.70;;;0.30;;
42690;SDS011;28306;55.744;37.578;2022-09-09T02:43:05;1.05;;;0.50;;
42690;SDS011;28306;55.744;37.578;2022-09-09T02:45:43;1.35;;;0.38;;
42690;SDS011;28306;55.744;37.578;2022-09-09T02:54:10;0.70;;;0.32;;
42690;SDS011;28306;55.744;37.578;2022-09-09T02:56:49;0.95;;;0.40;;
42690;SDS011;28306;55.744;37.578;2022-09-09T02:59:24;0.70;;;0.40;;
42690;SDS011;28306;55.744;37.578;2022-09-09T03:01:54;1.10;;;0.43;;
42690;SDS011;28306;55.744;37.578;2022-09-09T03:04:22;1.10;;;0.30;;
42690;SDS011;28306;55.744;37.578;2022-09-09T03:06:50;0.65;;;0.35;;
42690;SDS011;28306;55.744;37.578;2022-09-09T03:09:18;1.00;;;0.50;;
42690;SDS011;28306;55.744;37.578;2022-09-09T03:11:44;1.23;;;0.40;;
42690;SDS011;28306;55.744;37.578;2022-09-09T03:14:14;0.60;;;0.30;;
42690;SDS011;28306;55.744;37.578;2022-09-09T03:16:40;0.60;;;0.30;;
42690;SDS011;28306;55.744;37.578;2022-09-09T03:19:08;0.60;;;0.30;;
42690;SDS011;28306;55.744;37.578;2022-09-09T03:21:34;0.90;;;0.40;;
42690;SDS011;28306;55.744;37.578;2022-09-09T03:24:01;0.98;;;0.50;;
42690;SDS011;28306;55.744;37.578;2022-09-09T03:26:29;0.52;;;0.30;;
42690;SDS011;28306;55.744;37.578;2022-09-09T03:28:56;0.70;;;0.30;;
42690;SDS011;28306;55.744;37.578;2022-09-09T03:31:23;0.80;;;0.50;;
42690;SDS011;28306;55.744;37.578;2022-09-09T03:33:50;0.93;;;0.47;;
42690;SDS011;28306;55.744;37.578;2022-09-09T03:36:18;0.50;;;0.30;;
42690;SDS011;28306;55.744;37.578;2022-09-09T03:38:44;0.65;;;0.30;;
42690;SDS011;28306;55.744;37.578;2022-09-09T03:41:11;1.02;;;0.35;;
42690;SDS011;28306;55.744;37.578;2022-09-09T03:43:38;0.88;;;0.43;;
42690;SDS011;28306;55.744;37.578;2022-09-09T03:46:04;0.68;;;0.40;;
42690;SDS011;28306;55.744;37.578;2022-09-09T03:48:30;0.85;;;0.45;;
42690;SDS011;28306;55.744;37.578;2022-09-09T03:50:56;0.50;;;0.30;;
42690;SDS011;28306;55.744;37.578;2022-09-09T03:53:26;0.95;;;0.32;;
42690;SDS011;28306;55.744;37.578;2022-09-09T03:55:53;0.70;;;0.40;;
42690;SDS011;28306;55.744;37.578;2022-09-09T03:58:22;0.68;;;0.40;;
42690;SDS011;28306;55.744;37.578;2022-09-09T04:00:57;1.20;;;0.50;;
42690;SDS011;28306;55.744;37.578;2022-09-09T04:03:25;0.65;;;0.30;;
42690;SDS011;28306;55.744;37.578;2022-09-09T04:05:52;1.23;;;0.30;;
42690;SDS011;28306;55.744;37.578;2022-09-09T04:08:18;0.45;;;0.28;;
42690;SDS011;28306;55.744;37.578;2022-09-09T04:10:49;0.70;;;0.30;;
42690;SDS011;28306;55.744;37.578;2022-09-09T04:13:16;0.70;;;0.40;;
42690;SDS011;28306;55.744;37.578;2022-09-09T04:15:44;0.70;;;0.30;;
42690;SDS011;28306;55.744;37.578;2022-09-09T04:18:16;1.08;;;0.50;;
42690;SDS011;28306;55.744;37.578;2022-09-09T04:20:42;1.30;;;0.40;;
42690;SDS011;28306;55.744;37.578;2022-09-09T04:23:09;0.63;;;0.38;;
42690;SDS011;28306;55.744;37.578;2022-09-09T04:25:34;0.77;;;0.30;;
42690;SDS011;28306;55.744;37.578;2022-09-09T04:28:00;1.23;;;0.45;;
42690;SDS011;28306;55.744;37.578;2022-09-09T04:30:27;0.77;;;0.30;;
42690;SDS011;28306;55.744;37.578;2022-09-09T04:32:52;0.70;;;0.30;;
42690;SDS011;28306;55.744;37.578;2022-09-09T04:35:18;1.35;;;0.50;;
42690;SDS011;28306;55.744;37.578;2022-09-09T04:37:46;0.70;;;0.38;;
42690;SDS011;28306;55.744;37.578;2022-09-09T04:40:11;0.90;;;0.40;;
42690;SDS011;28306;55.744;37.578;2022-09-09T04:42:38;0.68;;;0.40;;
42690;SDS011;28306;55.744;37.578;2022-09-09T04:45:05;2.28;;;0.40;;
42690;SDS011;28306;55.744;37.578;2022-09-09T04:47:32;0.85;;;0.35;;
42690;SDS011;28306;55.744;37.578;2022-09-09T04:50:01;1.00;;;0.30;;
42690;SDS011;28306;55.744;37.578;2022-09-09T04:52:27;1.95;;;0.50;;
42690;SDS011;28306;55.744;37.578;2022-09-09T04:54:53;4.60;;;0.70;;
42690;SDS011;28306;55.744;37.578;2022-09-09T04:57:19;1.05;;;0.45;;
42690;SDS011;28306;55.744;37.578;2022-09-09T04:59:46;1.15;;;0.50;;
42690;SDS011;28306;55.744;37.578;2022-09-09T05:02:11;1.30;;;0.50;;
42690;SDS011;28306;55.744;37.578;2022-09-09T05:04:37;1.35;;;0.60;;
42690;SDS011;28306;55.744;37.578;2022-09-09T05:07:03;0.85;;;0.50;;
42690;SDS011;28306;55.744;37.578;2022-09-09T05:09:28;4.80;;;0.60;;
42690;SDS011;28306;55.744;37.578;2022-09-09T05:11:55;0.80;;;0.40;;
42690;SDS011;28306;55.744;37.578;2022-09-09T05:14:33;0.57;;;0.35;;
42690;SDS011;28306;55.744;37.578;2022-09-09T05:17:03;0.80;;;0.57;;
42690;SDS011;28306;55.744;37.578;2022-09-09T05:19:29;4.15;;;0.50;;
42690;SDS011;28306;55.744;37.578;2022-09-09T05:21:56;1.38;;;0.40;;
42690;SDS011;28306;55.744;37.578;2022-09-09T05:24:29;1.15;;;0.30;;
42690;SDS011;28306;55.744;37.578;2022-09-09T05:26:58;0.90;;;0.50;;
42690;SDS011;28306;55.744;37.578;2022-09-09T05:29:26;2.67;;;0.45;;
42690;SDS011;28306;55.744;37.578;2022-09-09T05:31:54;1.30;;;0.50;;
42690;SDS011;28306;55.744;37.578;2022-09-09T05:34:20;2.70;;;0.40;;
42690;SDS011;28306;55.744;37.578;2022-09-09T05:36:46;3.38;;;0.63;;
42690;SDS011;28306;55.744;37.578;2022-09-09T05:39:12;1.17;;;0.60;;
42690;SDS011;28306;55.744;37.578;2022-09-09T05:41:38;1.90;;;0.50;;
42690;SDS011;28306;55.744;37.578;2022-09-09T05:44:04;0.55;;;0.40;;
42690;SDS011;28306;55.744;37.578;2022-09-09T05:46:35;1.05;;;0.50;;
42690;SDS011;28306;55.744;37.578;2022-09-09T05:49:04;2.47;;;0.50;;
42690;SDS011;28306;55.744;37.578;2022-09-09T05:51:32;1.65;;;0.90;;
42690;SDS011;28306;55.744;37.578;2022-09-09T05:54:02;1.40;;;0.70;;
42690;SDS011;28306;55.744;37.578;2022-09-09T05:56:32;2.00;;;0.63;;
42690;SDS011;28306;55.744;37.578;2022-09-09T05:58:58;1.38;;;0.63;;
42690;SDS011;28306;55.744;37.578;2022-09-09T06:01:29;3.03;;;0.70;;
42690;SDS011;28306;55.744;37.578;2022-09-09T06:04:01;1.95;;;0.50;;
42690;SDS011;28306;55.744;37.578;2022-09-09T06:06:32;1.58;;;0.60;;
42690;SDS011;28306;55.744;37.578;2022-09-09T06:09:05;2.08;;;0.77;;
42690;SDS011;28306;55.744;37.578;2022-09-09T06:11:35;2.00;;;0.73;;
42690;SDS011;28306;55.744;37.578;2022-09-09T06:14:02;2.17;;;0.82;;
42690;SDS011;28306;55.744;37.578;2022-09-09T06:16:30;1.88;;;0.80;;
42690;SDS011;28306;55.744;37.578;2022-09-09T06:18:58;1.27;;;0.93;;
42690;SDS011;28306;55.744;37.578;2022-09-09T06:21:27;3.00;;;0.60;;
42690;SDS011;28306;55.744;37.578;2022-09-09T06:24:06;2.05;;;0.80;;
42690;SDS011;28306;55.744;37.578;2022-09-09T06:26:42;1.60;;;0.70;;
42690;SDS011;28306;55.744;37.578;2022-09-09T06:29:10;2.63;;;0.73;;
42690;SDS011;28306;55.744;37.578;2022-09-09T06:31:36;1.08;;;0.60;;
42690;SDS011;28306;55.744;37.578;2022-09-09T06:34:09;1.35;;;0.65;;
42690;SDS011;28306;55.744;37.578;2022-09-09T06:36:39;1.23;;;0.75;;
42690;SDS011;28306;55.744;37.578;2022-09-09T06:39:05;1.20;;;0.60;;
42690;SDS011;28306;55.744;37.578;2022-09-09T06:41:33;1.45;;;0.68;;
42690;SDS011;28306;55.744;37.578;2022-09-09T06:44:00;2.25;;;0.70;;
42690;SDS011;28306;55.744;37.578;2022-09-09T06:46:37;1.92;;;0.68;;
42690;SDS011;28306;55.744;37.578;2022-09-09T06:49:04;2.13;;;0.68;;
42690;SDS011;28306;55.744;37.578;2022-09-09T06:51:31;1.20;;;0.80;;
42690;SDS011;28306;55.744;37.578;2022-09-09T06:54:01;1.45;;;0.85;;
42690;SDS011;28306;55.744;37.578;2022-09-09T06:56:29;1.77;;;0.90;;
42690;SDS011;28306;55.744;37.578;2022-09-09T06:59:07;3.13;;;0.80;;
42690;SDS011;28306;55.744;37.578;2022-09-09T07:01:36;1.63;;;0.68;;
42690;SDS011;28306;55.744;37.578;2022-09-09T07:04:07;1.85;;;0.70;;
42690;SDS011;28306;55.744;37.578;2022-09-09T07:06:36;1.50;;;0.70;;
42690;SDS011;28306;55.744;37.578;2022-09-09T07:09:06;3.70;;;0.70;;
42690;SDS011;28306;55.744;37.578;2022-09-09T07:11:36;1.23;;;0.65;;
42690;SDS011;28306;55.744;37.578;2022-09-09T07:14:04;4.47;;;0.73;;
42690;SDS011;28306;55.744;37.578;2022-09-09T07:16:30;3.45;;;0.70;;
42690;SDS011;28306;55.744;37.578;2022-09-09T07:19:02;1.73;;;0.68;;
42690;SDS011;28306;55.744;37.578;2022-09-09T07:21:29;2.92;;;0.50;;
42690;SDS011;28306;55.744;37.578;2022-09-09T07:23:56;2.55;;;0.60;;
42690;SDS011;28306;55.744;37.578;2022-09-09T07:26:23;1.40;;;0.55;;
42690;SDS011;28306;55.744;37.578;2022-09-09T07:28:52;1.42;;;0.73;;
42690;SDS011;28306;55.744;37.578;2022-09-09T07:31:21;1.42;;;0.60;;
42690;SDS011;28306;55.744;37.578;2022-09-09T07:33:56;0.80;;;0.45;;
42690;SDS011;28306;55.744;37.578;2022-09-09T07:36:24;2.50;;;0.80;;
42690;SDS011;28306;55.744;37.578;2022-09-09T07:39:05;3.53;;;0.60;;
42690;SDS011;28306;55.744;37.578;2022-09-09T07:41:41;1.42;;;0.60;;
42690;SDS011;28306;55.744;37.578;2022-09-09T07:44:16;1.23;;;0.50;;
42690;SDS011;28306;55.744;37.578;2022-09-09T07:46:47;2.45;;;0.98;;
42690;SDS011;28306;55.744;37.578;2022-09-09T07:49:17;3.75;;;0.55;;
42690;SDS011;28306;55.744;37.578;2022-09-09T07:51:45;1.00;;;0.50;;
42690;SDS011;28306;55.744;37.578;2022-09-09T07:54:15;3.15;;;0.70;;
42690;SDS011;28306;55.744;37.578;2022-09-09T07:56:46;1.67;;;0.57;;
42690;SDS011;28306;55.744;37.578;2022-09-09T07:59:12;1.35;;;0.50;;
42690;SDS011;28306;55.744;37.578;2022-09-09T08:01:48;2.10;;;0.65;;
42690;SDS011;28306;55.744;37.578;2022-09-09T08:04:18;0.85;;;0.40;;
42690;SDS011;28306;55.744;37.578;2022-09-09T08:06:51;1.55;;;0.75;;
42690;SDS011;28306;55.744;37.578;2022-09-09T08:11:47;2.65;;;0.70;;
42690;SDS011;28306;55.744;37.578;2022-09-09T08:14:13;2.30;;;0.73;;
42690;SDS011;28306;55.744;37.578;2022-09-09T08:16:41;2.63;;;0.90;;
42690;SDS011;28306;55.744;37.578;2022-09-09T08:19:10;2.30;;;0.93;;
42690;SDS011;28306;55.744;37.578;2022-09-09T08:21:38;3.30;;;0.50;;
42690;SDS011;28306;55.744;37.578;2022-09-09T08:24:06;0.95;;;0.43;;
42690;SDS011;28306;55.744;37.578;2022-09-09T08:26:35;1.70;;;0.40;;
42690;SDS011;28306;55.744;37.578;2022-09-09T08:29:06;1.55;;;0.57;;
42690;SDS011;28306;55.744;37.578;2022-09-09T08:31:34;1.45;;;0.73;;
42690;SDS011;28306;55.744;37.578;2022-09-09T08:34:03;1.20;;;0.63;;
42690;SDS011;28306;55.744;37.578;2022-09-09T08:36:33;1.42;;;0.40;;
42690;SDS011;28306;55.744;37.578;2022-09-09T08:39:01;1.60;;;0.45;;
42690;SDS011;28306;55.744;37.578;2022-09-09T08:44:14;2.10;;;0.75;;
42690;SDS011;28306;55.744;37.578;2022-09-09T08:49:33;3.28;;;0.45;;
42690;SDS011;28306;55.744;37.578;2022-09-09T08:52:18;3.13;;;0.88;;
42690;SDS011;28306;55.744;37.578;2022-09-09T08:54:47;5.15;;;0.50;;
42690;SDS011;28306;55.744;37.578;2022-09-09T08:57:14;2.67;;;0.77;;
42690;SDS011;28306;55.744;37.578;2022-09-09T08:59:46;2.17;;;0.90;;
42690;SDS011;28306;55.744;37.578;2022-09-09T09:07:39;3.38;;;0.65;;
42690;SDS011;28306;55.744;37.578;2022-09-09T09:16:01;2.50;;;0.60;;
42690;SDS011;28306;55.744;37.578;2022-09-09T09:18:54;2.58;;;0.50;;
42690;SDS011;28306;55.744;37.578;2022-09-09T09:26:41;4.95;;;0.77;;
42690;SDS011;28306;55.744;37.578;2022-09-09T09:29:16;1.90;;;0.40;;
42690;SDS011;28306;55.744;37.578;2022-09-09T09:31:55;1.63;;;0.50;;
42690;SDS011;28306;55.744;37.578;2022-09-09T09:34:25;2.28;;;0.47;;
42690;SDS011;28306;55.744;37.578;2022-09-09T09:39:27;4.45;;;0.50;;
42690;SDS011;28306;55.744;37.578;2022-09-09T09:41:57;1.27;;;0.40;;
42690;SDS011;28306;55.744;37.578;2022-09-09T09:44:33;1.73;;;0.40;;
42690;SDS011;28306;55.744;37.578;2022-09-09T09:47:19;1.25;;;0.40;;
42690;SDS011;28306;55.744;37.578;2022-09-09T09:52:42;2.28;;;0.43;;
42690;SDS011;28306;55.744;37.578;2022-09-09T09:55:18;0.65;;;0.30;;
42690;SDS011;28306;55.744;37.578;2022-09-09T09:57:45;1.35;;;0.43;;
42690;SDS011;28306;55.744;37.578;2022-09-09T10:00:13;1.83;;;0.57;;
42690;SDS011;28306;55.744;37.578;2022-09-09T10:02:47;1.45;;;0.40;;
42690;SDS011;28306;55.744;37.578;2022-09-09T10:05:20;0.95;;;0.40;;
42690;SDS011;28306;55.744;37.578;2022-09-09T10:08:08;1.15;;;0.40;;
42690;SDS011;28306;55.744;37.578;2022-09-09T10:13:23;1.48;;;0.52;;
42690;SDS011;28306;55.744;37.578;2022-09-09T10:16:27;3.50;;;0.55;;
42690;SDS011;28306;55.744;37.578;2022-09-09T10:18:59;2.90;;;0.55;;
42690;SDS011;28306;55.744;37.578;2022-09-09T10:32:49;7.47;;;1.00;;
42690;SDS011;28306;55.744;37.578;2022-09-09T10:38:10;8.05;;;0.60;;
42690;SDS011;28306;55.744;37.578;2022-09-09T10:51:18;8.75;;;0.90;;
42690;SDS011;28306;55.744;37.578;2022-09-09T10:54:13;1.80;;;0.40;;
42690;SDS011;28306;55.744;37.578;2022-09-09T10:56:37;6.45;;;0.52;;
42690;SDS011;28306;55.744;37.578;2022-09-09T10:59:07;2.08;;;0.38;;
42690;SDS011;28306;55.744;37.578;2022-09-09T11:07:16;4.68;;;0.50;;
42690;SDS011;28306;55.744;37.578;2022-09-09T11:09:54;1.05;;;0.40;;
42690;SDS011;28306;55.744;37.578;2022-09-09T11:14:59;2.78;;;0.70;;
42690;SDS011;28306;55.744;37.578;2022-09-09T11:17:42;1.45;;;0.40;;
42690;SDS011;28306;55.744;37.578;2022-09-09T11:20:12;0.68;;;0.30;;
42690;SDS011;28306;55.744;37.578;2022-09-09T11:22:42;1.83;;;0.60;;
42690;SDS011;28306;55.744;37.578;2022-09-09T11:25:21;4.25;;;0.60;;
42690;SDS011;28306;55.744;37.578;2022-09-09T11:38:50;2.10;;;0.50;;
42690;SDS011;28306;55.744;37.578;2022-09-09T11:41:17;2.95;;;0.45;;
42690;SDS011;28306;55.744;37.578;2022-09-09T11:43:51;2.30;;;0.75;;
42690;SDS011;28306;55.744;37.578;2022-09-09T11:46:22;2.47;;;0.60;;
42690;SDS011;28306;55.744;37.578;2022-09-09T11:49:02;10.10;;;1.15;;
42690;SDS011;28306;55.744;37.578;2022-09-09T11:51:29;10.85;;;1.05;;
42690;SDS011;28306;55.744;37.578;2022-09-09T11:54:00;6.70;;;0.75;;
42690;SDS011;28306;55.744;37.578;2022-09-09T11:56:30;9.10;;;1.58;;
42690;SDS011;28306;55.744;37.578;2022-09-09T12:07:21;5.45;;;0.85;;
42690;SDS011;28306;55.744;37.578;2022-09-09T12:10:03;5.10;;;0.60;;
42690;SDS011;28306;55.744;37.578;2022-09-09T12:12:44;3.35;;;0.43;;
42690;SDS011;28306;55.744;37.578;2022-09-09T12:17:45;1.75;;;0.50;;
42690;SDS011;28306;55.744;37.578;2022-09-09T12:31:33;2.83;;;0.50;;
42690;SDS011;28306;55.744;37.578;2022-09-09T12:37:19;1.83;;;0.55;;
42690;SDS011;28306;55.744;37.578;2022-09-09T12:39:53;7.25;;;0.65;;
42690;SDS011;28306;55.744;37.578;2022-09-09T12:42:21;1.23;;;0.35;;
42690;SDS011;28306;55.744;37.578;2022-09-09T12:44:55;1.33;;;0.55;;
42690;SDS011;28306;55.744;37.578;2022-09-09T12:47:25;3.00;;;0.60;;
42690;SDS011;28306;55.744;37.578;2022-09-09T12:50:11;3.73;;;0.57;;
42690;SDS011;28306;55.744;37.578;2022-09-09T12:52:42;3.17;;;0.32;;
42690;SDS011;28306;55.744;37.578;2022-09-09T12:55:16;1.10;;;0.40;;
42690;SDS011;28306;55.744;37.578;2022-09-09T12:57:55;1.60;;;0.47;;
42690;SDS011;28306;55.744;37.578;2022-09-09T13:00:23;3.60;;;0.50;;
42690;SDS011;28306;55.744;37.578;2022-09-09T13:05:21;7.10;;;0.45;;
42690;SDS011;28306;55.744;37.578;2022-09-09T13:07:49;1.52;;;0.50;;
42690;SDS011;28306;55.744;37.578;2022-09-09T13:10:20;9.77;;;0.63;;
42690;SDS011;28306;55.744;37.578;2022-09-09T13:12:52;3.10;;;0.50;;
42690;SDS011;28306;55.744;37.578;2022-09-09T13:15:22;30.35;;;1.30;;
42690;SDS011;28306;55.744;37.578;2022-09-09T13:20:19;12.32;;;1.00;;
42690;SDS011;28306;55.744;37.578;2022-09-09T13:22:46;13.93;;;1.42;;
42690;SDS011;28306;55.744;37.578;2022-09-09T13:25:17;20.73;;;1.10;;
42690;SDS011;28306;55.744;37.578;2022-09-09T13:30:26;6.00;;;0.90;;
42690;SDS011;28306;55.744;37.578;2022-09-09T13:35:57;10.75;;;0.73;;
42690;SDS011;28306;55.744;37.578;2022-09-09T13:38:28;9.57;;;1.35;;
42690;SDS011;28306;55.744;37.578;2022-09-09T13:43:36;7.93;;;0.60;;
42690;SDS011;28306;55.744;37.578;2022-09-09T13:54:04;9.55;;;0.70;;
42690;SDS011;28306;55.744;37.578;2022-09-09T13:56:34;9.15;;;0.70;;
42690;SDS011;28306;55.744;37.578;2022-09-09T13:59:01;2.88;;;0.70;;
42690;SDS011;28306;55.744;37.578;2022-09-09T14:01:28;14.00;;;0.90;;
42690;SDS011;28306;55.744;37.578;2022-09-09T14:03:53;4.93;;;0.45;;
42690;SDS011;28306;55.744;37.578;2022-09-09T14:06:19;3.28;;;0.45;;
42690;SDS011;28306;55.744;37.578;2022-09-09T14:08:47;3.10;;;0.50;;
42690;SDS011;28306;55.744;37.578;2022-09-09T14:11:15;5.35;;;0.50;;
42690;SDS011;28306;55.744;37.578;2022-09-09T14:13:41;3.00;;;0.40;;
42690;SDS011;28306;55.744;37.578;2022-09-09T14:16:07;3.88;;;0.60;;
42690;SDS011;28306;55.744;37.578;2022-09-09T14:18:32;3.83;;;0.60;;
42690;SDS011;28306;55.744;37.578;2022-09-09T14:20:59;4.47;;;0.60;;
42690;SDS011;28306;55.744;37.578;2022-09-09T14:23:25;1.13;;;0.35;;
42690;SDS011;28306;55.744;37.578;2022-09-09T14:25:50;1.58;;;0.30;;
42690;SDS011;28306;55.744;37.578;2022-09-09T14:28:16;1.02;;;0.40;;
42690;SDS011;28306;55.744;37.578;2022-09-09T14:30:43;7.82;;;0.70;;
42690;SDS011;28306;55.744;37.578;2022-09-09T14:33:13;0.65;;;0.38;;
42690;SDS011;28306;55.744;37.578;2022-09-09T14:35:40;5.80;;;0.40;;
42690;SDS011;28306;55.744;37.578;2022-09-09T14:38:07;0.88;;;0.30;;
42690;SDS011;28306;55.744;37.578;2022-09-09T14:40:34;2.97;;;0.40;;
42690;SDS011;28306;55.744;37.578;2022-09-09T14:43:01;2.78;;;0.50;;
42690;SDS011;28306;55.744;37.578;2022-09-09T14:45:27;3.83;;;0.65;;
42690;SDS011;28306;55.744;37.578;2022-09-09T14:47:53;1.33;;;0.50;;
42690;SDS011;28306;55.744;37.578;2022-09-09T14:50:20;2.83;;;0.40;;
42690;SDS011;28306;55.744;37.578;2022-09-09T14:52:45;1.45;;;0.47;;
42690;SDS011;28306;55.744;37.578;2022-09-09T14:55:11;1.15;;;0.40;;
42690;SDS011;28306;55.744;37.578;2022-09-09T14:57:38;1.05;;;0.50;;
42690;SDS011;28306;55.744;37.578;2022-09-09T15:00:05;1.08;;;0.40;;
42690;SDS011;28306;55.744;37.578;2022-09-09T15:02:32;3.90;;;0.60;;
42690;SDS011;28306;55.744;37.578;2022-09-09T15:04:57;1.90;;;0.35;;
42690;SDS011;28306;55.744;37.578;2022-09-09T15:07:26;1.50;;;0.40;;
42690;SDS011;28306;55.744;37.578;2022-09-09T15:09:53;2.70;;;0.47;;
42690;SDS011;28306;55.744;37.578;2022-09-09T15:12:20;1.98;;;0.30;;
42690;SDS011;28306;55.744;37.578;2022-09-09T15:14:46;2.33;;;0.40;;
42690;SDS011;28306;55.744;37.578;2022-09-09T15:17:12;0.70;;;0.40;;
42690;SDS011;28306;55.744;37.578;2022-09-09T15:19:38;1.40;;;0.32;;
42690;SDS011;28306;55.744;37.578;2022-09-09T15:22:04;3.53;;;0.57;;
42690;SDS011;28306;55.744;37.578;2022-09-09T15:24:31;0.80;;;0.28;;
42690;SDS011;28306;55.744;37.578;2022-09-09T15:26:57;0.70;;;0.28;;
42690;SDS011;28306;55.744;37.578;2022-09-09T15:29:23;1.27;;;0.47;;
42690;SDS011;28306;55.744;37.578;2022-09-09T15:31:49;1.23;;;0.38;;
42690;SDS011;28306;55.744;37.578;2022-09-09T15:34:15;0.60;;;0.35;;
42690;SDS011;28306;55.744;37.578;2022-09-09T15:36:42;1.02;;;0.30;;
42690;SDS011;28306;55.744;37.578;2022-09-09T15:39:12;1.15;;;0.43;;
42690;SDS011;28306;55.744;37.578;2022-09-09T15:41:50;1.38;;;0.40;;
42690;SDS011;28306;55.744;37.578;2022-09-09T15:44:16;0.70;;;0.20;;
42690;SDS011;28306;55.744;37.578;2022-09-09T15:46:44;2.00;;;0.65;;
42690;SDS011;28306;55.744;37.578;2022-09-09T15:51:39;2.25;;;0.63;;
42690;SDS011;28306;55.744;37.578;2022-09-09T15:54:09;0.85;;;0.38;;
42690;SDS011;28306;55.744;37.578;2022-09-09T15:56:37;0.77;;;0.40;;
42690;SDS011;28306;55.744;37.578;2022-09-09T15:59:03;1.65;;;0.50;;
42690;SDS011;28306;55.744;37.578;2022-09-09T16:01:29;2.33;;;0.50;;
42690;SDS011;28306;55.744;37.578;2022-09-09T16:03:56;1.73;;;0.47;;
42690;SDS011;28306;55.744;37.578;2022-09-09T16:06:23;1.25;;;0.40;;
42690;SDS011;28306;55.744;37.578;2022-09-09T16:08:51;0.80;;;0.30;;
42690;SDS011;28306;55.744;37.578;2022-09-09T16:11:22;0.63;;;0.25;;
42690;SDS011;28306;55.744;37.578;2022-09-09T16:13:51;1.55;;;0.50;;
42690;SDS011;28306;55.744;37.578;2022-09-09T16:16:19;2.70;;;0.43;;
42690;SDS011;28306;55.744;37.578;2022-09-09T16:18:47;1.38;;;0.50;;
42690;SDS011;28306;55.744;37.578;2022-09-09T16:21:19;7.22;;;0.98;;
42690;SDS011;28306;55.744;37.578;2022-09-09T16:23:51;9.95;;;0.70;;
42690;SDS011;28306;55.744;37.578;2022-09-09T16:26:18;19.10;;;2.38;;
42690;SDS011;28306;55.744;37.578;2022-09-09T16:28:44;15.13;;;1.95;;
42690;SDS011;28306;55.744;37.578;2022-09-09T16:31:14;30.90;;;2.30;;
42690;SDS011;28306;55.744;37.578;2022-09-09T16:33:43;16.75;;;1.55;;
42690;SDS011;28306;55.744;37.578;2022-09-09T16:36:11;11.68;;;1.60;;
42690;SDS011;28306;55.744;37.578;2022-09-09T16:38:39;28.67;;;2.13;;
42690;SDS011;28306;55.744;37.578;2022-09-09T16:41:05;17.35;;;1.67;;
42690;SDS011;28306;55.744;37.578;2022-09-09T16:43:33;19.80;;;2.05;;
42690;SDS011;28306;55.744;37.578;2022-09-09T16:46:00;10.02;;;1.45;;
42690;SDS011;28306;55.744;37.578;2022-09-09T16:48:32;8.75;;;1.48;;
42690;SDS011;28306;55.744;37.578;2022-09-09T16:51:04;16.42;;;1.60;;
42690;SDS011;28306;55.744;37.578;2022-09-09T16:53:32;16.85;;;1.70;;
42690;SDS011;28306;55.744;37.578;2022-09-09T16:56:04;6.18;;;1.50;;
42690;SDS011;28306;55.744;37.578;2022-09-09T16:58:33;12.13;;;1.23;;
42690;SDS011;28306;55.744;37.578;2022-09-09T17:00:59;10.43;;;1.20;;
42690;SDS011;28306;55.744;37.578;2022-09-09T17:03:27;10.70;;;1.35;;
42690;SDS011;28306;55.744;37.578;2022-09-09T17:05:53;7.25;;;1.17;;
42690;SDS011;28306;55.744;37.578;2022-09-09T17:08:18;10.00;;;1.20;;
42690;SDS011;28306;55.744;37.578;2022-09-09T17:10:44;9.25;;;1.02;;
42690;SDS011;28306;55.744;37.578;2022-09-09T17:13:10;5.75;;;0.80;;
42690;SDS011;28306;55.744;37.578;2022-09-09T17:15:40;13.05;;;1.42;;
42690;SDS011;28306;55.744;37.578;2022-09-09T17:18:11;6.88;;;1.33;;
42690;SDS011;28306;55.744;37.578;2022-09-09T17:20:40;7.43;;;1.00;;
42690;SDS011;28306;55.744;37.578;2022-09-09T17:23:10;8.25;;;1.25;;
42690;SDS011;28306;55.744;37.578;2022-09-09T17:25:40;6.38;;;0.80;;
42690;SDS011;28306;55.744;37.578;2022-09-09T17:28:06;9.85;;;1.58;;
42690;SDS011;28306;55.744;37.578;2022-09-09T17:30:35;8.23;;;1.30;;
42690;SDS011;28306;55.744;37.578;2022-09-09T17:33:02;4.95;;;1.35;;
42690;SDS011;28306;55.744;37.578;2022-09-09T17:35:29;3.13;;;0.60;;
42690;SDS011;28306;55.744;37.578;2022-09-09T17:37:55;6.78;;;0.70;;
42690;SDS011;28306;55.744;37.578;2022-09-09T17:40:21;2.92;;;0.73;;